Enter the Airport ICAO Code

Search by Airport or City

Current Weather

LFMN | Nice Côte d'Azur Airport

Nice, Provence-Alpes-Côte d'Azur, France

Last Update 30 Minutes Ago

Clear Sky

Temperature of 29 ºC

Light to Moderate Winds from South

Temperature

29 ºC

Dew Point Temperature

21 ºC

Relative Humidity

62.24 %

Wind Direction

South (180º, Without Significant Variations)

Wind Velocity

11 km/h (06 kt)

Gusts

None

Visibility

No Significant Reductions

Sea Level Pressure

1016 hPa (Hectopascals)

Layers of Clouds

None

METAR LFMN 121400Z 18006KT CAVOK 29/21 Q1016 NOSIG

Weather Forecast

LFMN | Nice Côte d'Azur Airport

Nice, Provence-Alpes-Côte d'Azur, France

Forecast valid for the next 31 Hours

In 1 hour it is expected the begining of:

Clear Sky

Light Winds from South

In 9 hours it is expected the begining of 3 hours with intermittent periods of:

Mostly Cloudy Sky

In 12 hours it is expected the begining of 2 hours with intermittent periods of:

Light Thunderstorm with Rain

In 17 hours it is expected the begining of 12 hours with intermittent periods of:

Moderate to Strong Winds from East

Maximum Temperature

No Data

Minimum Temperature

No Data

TAF LFMN 121400Z 1215/1321 17004KT CAVOK PROB30 TEMPO 1223/1302 BKN006 PROB40 TEMPO 1302/1304 -TSRA BKN110CB TEMPO 1307/1319 09016KT